Time;durP1;ratioP1;P1;durP2;ratioP2;P2;SDS_P1;SDS_P2;PMS_P1;PMS_P2;Temp;Humidity;BMP_temperature;BMP_pressure;BME280_temperature;BME280_humidity;BME280_pressure;Samples;Min_cycle;Max_cycle;Signal;HPM_P1;HPM_P2
2022/01/25 00:08:28;;;;;;;23.80;11.95;;;;;;;;;;5061640;28;20283;-84
2022/01/25 00:27:48;;;;;;;15.77;11.65;;;;;;;;;;5079728;27;20743;-84
2022/01/25 00:30:42;;;;;;;22.02;13.25;;;;;;;;;;5073270;28;20656;-84
2022/01/25 00:33:09;;;;;;;15.18;11.77;;;;;;;;;;5069639;28;20199;-85
2022/01/25 00:35:36;;;;;;;17.40;11.50;;;;;;;;;;5071737;28;20315;-84
2022/01/25 00:38:03;;;;;;;17.17;12.30;;;;;;;;;;5074533;28;20263;-85
2022/01/25 00:40:30;;;;;;;14.32;10.75;;;;;;;;;;5073156;28;20203;-84
2022/01/25 00:42:59;;;;;;;18.33;12.23;;;;;;;;;;5074958;28;20595;-84
2022/01/25 00:45:28;;;;;;;14.85;9.82;;;;;;;;;;5070157;28;20632;-84
2022/01/25 00:48:02;;;;;;;25.40;11.77;;;;;;;;;;5069235;28;20218;-84
2022/01/25 00:50:36;;;;;;;17.35;12.00;;;;;;;;;;5071096;28;20199;-85
2022/01/25 00:55:48;;;;;;;17.35;12.00;;;;;;;;;;5074643;28;20818;-85
2022/01/25 00:58:17;;;;;;;22.35;13.52;;;;;;;;;;5072508;28;20242;-84
2022/01/25 01:00:44;;;;;;;18.35;12.82;;;;;;;;;;5074902;28;20243;-84
2022/01/25 01:03:11;;;;;;;20.85;13.85;;;;;;;;;;5072289;28;20290;-85
2022/01/25 01:05:39;;;;;;;21.40;13.02;;;;;;;;;;5070777;28;20314;-85
2022/01/25 01:08:07;;;;;;;23.42;13.02;;;;;;;;;;5072588;28;20206;-85
2022/01/25 01:10:36;;;;;;;21.63;13.95;;;;;;;;;;5071342;28;20199;-84
2022/01/25 01:16:00;;;;;;;17.63;12.77;;;;;;;;;;5045452;28;20218;-83
2022/01/25 01:29:52;;;;;;;15.68;11.80;;;;;;;;;;5072480;28;20594;-83
2022/01/25 01:32:48;;;;;;;21.70;12.20;;;;;;;;;;5072346;28;20232;-84
2022/01/25 01:38:41;;;;;;;19.85;13.63;;;;;;;;;;5063215;28;20215;-83
2022/01/25 01:41:25;;;;;;;20.15;13.27;;;;;;;;;;5056787;28;20207;-83
2022/01/25 01:43:53;;;;;;;20.70;12.23;;;;;;;;;;5059498;28;20206;-83
2022/01/25 01:46:31;;;;;;;17.20;12.20;;;;;;;;;;5058619;28;20230;-83
2022/01/25 01:49:02;;;;;;;17.60;13.55;;;;;;;;;;5059538;28;20873;-83
2022/01/25 01:51:33;;;;;;;16.60;11.02;;;;;;;;;;5058716;28;20211;-84
2022/01/25 01:54:02;;;;;;;16.58;11.35;;;;;;;;;;5059750;28;20222;-83
2022/01/25 01:56:29;;;;;;;22.20;12.23;;;;;;;;;;5058329;28;20219;-83
2022/01/25 01:58:58;;;;;;;21.38;12.60;;;;;;;;;;5057765;28;20196;-83
2022/01/25 02:01:27;;;;;;;24.13;14.13;;;;;;;;;;5059848;28;20196;-83
2022/01/25 02:03:57;;;;;;;17.10;12.00;;;;;;;;;;5058979;28;20684;-83
2022/01/25 02:06:26;;;;;;;25.23;14.80;;;;;;;;;;5052098;28;20277;-83
2022/01/25 02:08:53;;;;;;;17.15;11.95;;;;;;;;;;5055922;28;20196;-83
2022/01/25 02:11:20;;;;;;;22.63;12.75;;;;;;;;;;5054257;28;20226;-83
2022/01/25 02:13:48;;;;;;;19.20;12.48;;;;;;;;;;5056316;28;20932;-83
2022/01/25 02:16:30;;;;;;;22.77;13.50;;;;;;;;;;5059493;28;20223;-83
2022/01/25 02:24:32;;;;;;;21.27;13.60;;;;;;;;;;5057868;28;20215;-83
2022/01/25 02:26:59;;;;;;;22.20;13.95;;;;;;;;;;5057223;28;20241;-83
2022/01/25 02:29:28;;;;;;;18.60;12.52;;;;;;;;;;5056767;28;20658;-83
2022/01/25 02:31:56;;;;;;;18.05;12.95;;;;;;;;;;5054796;28;20632;-83
2022/01/25 02:34:23;;;;;;;22.88;16.45;;;;;;;;;;5058595;28;20235;-84
2022/01/25 02:36:59;;;;;;;27.38;16.33;;;;;;;;;;5059309;28;20199;-83
2022/01/25 02:39:26;;;;;;;19.40;14.52;;;;;;;;;;5058649;28;20211;-83
2022/01/25 02:41:54;;;;;;;19.63;13.68;;;;;;;;;;5057928;28;20287;-83
2022/01/25 02:44:27;;;;;;;21.92;14.43;;;;;;;;;;5057181;28;20257;-83
2022/01/25 02:49:39;;;;;;;22.05;13.50;;;;;;;;;;5054978;28;20656;-84
2022/01/25 02:52:11;;;;;;;32.47;15.90;;;;;;;;;;5059353;28;20299;-83
2022/01/25 02:54:40;;;;;;;21.40;13.27;;;;;;;;;;5057061;28;20228;-84
2022/01/25 02:57:10;;;;;;;24.75;16.38;;;;;;;;;;5059141;28;20572;-83
2022/01/25 02:59:37;;;;;;;22.00;15.80;;;;;;;;;;5056382;28;20200;-84
2022/01/25 03:02:04;;;;;;;21.75;14.13;;;;;;;;;;5057208;28;20224;-84
2022/01/25 03:04:31;;;;;;;20.90;14.63;;;;;;;;;;5057340;28;20285;-84
2022/01/25 03:06:59;;;;;;;21.63;13.38;;;;;;;;;;5048986;28;20262;-84
2022/01/25 03:09:27;;;;;;;18.30;13.75;;;;;;;;;;5057527;28;20194;-83
2022/01/25 03:11:56;;;;;;;20.25;14.95;;;;;;;;;;5057423;28;20257;-83
2022/01/25 03:14:31;;;;;;;20.58;16.00;;;;;;;;;;5057887;28;20207;-83
2022/01/25 03:17:08;;;;;;;21.20;14.75;;;;;;;;;;5055952;28;20203;-83
2022/01/25 03:19:48;;;;;;;18.15;14.68;;;;;;;;;;5057242;28;20223;-84
2022/01/25 03:22:29;;;;;;;20.10;14.65;;;-0.20;99.90;;;;;;5057411;28;20199;-84
2022/01/25 03:24:57;;;;;;;22.75;13.30;;;;;;;;;;5051107;28;20615;-83
2022/01/25 03:27:25;;;;;;;18.85;13.02;;;;;;;;;;5058100;28;20216;-84
2022/01/25 03:29:52;;;;;;;20.27;14.68;;;;;;;;;;5055774;28;20295;-83
2022/01/25 03:32:19;;;;;;;19.83;13.32;;;;;;;;;;5053419;28;20273;-83
2022/01/25 03:34:46;;;;;;;20.60;14.07;;;;;;;;;;5057333;28;20200;-83
2022/01/25 03:37:13;;;;;;;20.63;14.18;;;;;;;;;;5059829;28;20213;-83
2022/01/25 03:39:40;;;;;;;22.17;15.02;;;;;;;;;;5052819;28;20294;-84
2022/01/25 03:42:11;;;;;;;23.15;14.18;;;;;;;;;;5057294;28;20289;-83
2022/01/25 03:44:39;;;;;;;18.27;13.43;;;;;;;;;;5053090;28;20254;-83
2022/01/25 03:47:11;;;;;;;17.83;14.70;;;;;;;;;;5052542;28;20659;-83
2022/01/25 03:49:50;;;;;;;18.02;14.43;;;;;;;;;;5054366;28;20249;-83
2022/01/25 03:52:22;;;;;;;19.67;15.82;;;;;;;;;;5054537;28;20573;-83
2022/01/25 03:54:50;;;;;;;19.45;14.60;;;;;;;;;;5055582;28;20203;-83
2022/01/25 03:57:19;;;;;;;18.42;12.55;;;;;;;;;;5056227;28;20679;-83
2022/01/25 03:59:46;;;;;;;22.95;15.75;;;;;;;;;;5057448;28;20552;-83
2022/01/25 04:02:13;;;;;;;19.77;13.90;;;;;;;;;;5052849;28;20219;-83
2022/01/25 04:04:41;;;;;;;18.02;13.70;;;;;;;;;;5056126;28;20609;-83
2022/01/25 04:07:11;;;;;;;17.85;13.90;;;;;;;;;;5059508;28;20634;-83
2022/01/25 04:09:39;;;;;;;17.38;12.75;;;;;;;;;;5058762;28;20660;-83
2022/01/25 04:12:07;;;;;;;21.25;14.70;;;;;;;;;;5056500;28;20235;-83
2022/01/25 04:14:35;;;;;;;18.10;13.57;;;;;;;;;;5059033;28;20601;-83
2022/01/25 04:17:05;;;;;;;24.88;15.75;;;;;;;;;;5056721;28;20257;-83
2022/01/25 04:19:37;;;;;;;16.58;12.57;;;;;;;;;;5055157;28;20192;-83
2022/01/25 04:25:04;;;;;;;23.52;14.57;;;;;;;;;;5052996;28;20285;-83
2022/01/25 04:27:32;;;;;;;20.00;14.40;;;;;;;;;;5053352;28;20223;-83
2022/01/25 04:30:01;;;;;;;23.98;13.57;;;;;;;;;;5056232;28;20617;-83
2022/01/25 04:32:34;;;;;;;24.48;15.48;;;;;;;;;;5053261;28;20206;-83
2022/01/25 04:35:12;;;;;;;21.10;14.32;;;;;;;;;;5055633;28;20487;-83
2022/01/25 04:48:58;;;;;;;19.52;12.32;;;;;;;;;;5054086;28;20206;-83
2022/01/25 04:54:14;;;;;;;40.17;23.58;;;-0.70;99.90;;;;;;5052889;28;20212;-83
2022/01/25 04:56:47;;;;;;;40.67;28.60;;;;;;;;;;5051915;28;20777;-83
2022/01/25 04:59:21;;;;;;;39.20;24.33;;;;;;;;;;5057323;28;20295;-83
2022/01/25 05:01:53;;;;;;;44.72;23.67;;;;;;;;;;5049028;28;20224;-83
2022/01/25 05:04:25;;;;;;;30.77;21.27;;;;;;;;;;5054515;28;20195;-83
2022/01/25 05:06:56;;;;;;;28.42;20.10;;;;;;;;;;5059356;28;20227;-84
2022/01/25 05:09:23;;;;;;;17.95;13.57;;;;;;;;;;5057124;28;20621;-84
2022/01/25 05:11:51;;;;;;;19.73;13.40;;;;;;;;;;5055405;28;20668;-86
2022/01/25 05:14:22;;;;;;;25.08;15.88;;;;;;;;;;5058382;28;20199;-84
2022/01/25 05:16:54;;;;;;;17.25;14.77;;;;;;;;;;5059080;28;20617;-84
2022/01/25 05:22:05;;;;;;;20.50;14.05;;;;;;;;;;5061931;28;20203;-84
2022/01/25 05:22:28;;;;;;;19.48;15.18;;;;;;;;;;5056641;28;20282;-84
2022/01/25 05:24:55;;;;;;;17.75;12.95;;;;;;;;;;5058207;28;20729;-84
2022/01/25 05:27:26;;;;;;;17.02;12.68;;;;;;;;;;5055278;28;20235;-84
2022/01/25 05:29:54;;;;;;;19.50;12.82;;;;;;;;;;5059781;28;20188;-83
2022/01/25 05:32:22;;;;;;;18.38;13.95;;;;;;;;;;5056347;28;20215;-83
2022/01/25 05:34:49;;;;;;;26.08;18.08;;;;;;;;;;5057442;28;20744;-86
2022/01/25 05:37:17;;;;;;;21.33;15.73;;;;;;;;;;5059559;28;20199;-86
2022/01/25 05:39:46;;;;;;;21.88;14.10;;;;;;;;;;5060451;28;20665;-85
2022/01/25 05:42:21;;;;;;;16.38;12.50;;;;;;;;;;5053483;28;20227;-86
2022/01/25 05:45:11;;;;;;;18.75;16.52;;;;;;;;;;5055867;28;21002;-86
2022/01/25 05:47:41;;;;;;;20.10;14.52;;;;;;;;;;5058621;28;20668;-86
2022/01/25 05:50:09;;;;;;;20.80;14.75;;;;;;;;;;5051559;28;20198;-86
2022/01/25 05:52:36;;;;;;;24.00;15.77;;;;;;;;;;5060067;28;20270;-85
2022/01/25 05:55:04;;;;;;;24.45;14.82;;;;;;;;;;5057683;28;20627;-85
2022/01/25 05:57:31;;;;;;;21.13;15.10;;;;;;;;;;5051215;28;20629;-86
2022/01/25 05:59:59;;;;;;;21.75;14.38;;;;;;;;;;5055708;28;20285;-85
2022/01/25 06:02:29;;;;;;;19.27;14.35;;;;;;;;;;5061199;28;20720;-86
2022/01/25 06:04:57;;;;;;;18.00;14.05;;;;;;;;;;5055772;28;20200;-85
2022/01/25 06:07:26;;;;;;;22.98;15.35;;;;;;;;;;5050768;28;20263;-85
2022/01/25 06:09:54;;;;;;;17.85;13.82;;;;;;;;;;5057901;28;20503;-85
2022/01/25 06:12:21;;;;;;;22.92;14.18;;;;;;;;;;5057264;28;20295;-85
2022/01/25 06:14:48;;;;;;;21.10;15.68;;;;;;;;;;5060690;28;20219;-85
2022/01/25 06:17:15;;;;;;;21.63;14.10;;;;;;;;;;5057141;28;20207;-85
2022/01/25 06:19:43;;;;;;;22.25;14.98;;;;;;;;;;5061426;28;20203;-84
2022/01/25 06:22:12;;;;;;;27.80;17.73;;;;;;;;;;5058921;28;20254;-84
2022/01/25 06:24:39;;;;;;;23.95;16.15;;;;;;;;;;5060956;28;20204;-84
2022/01/25 06:27:07;;;;;;;28.92;18.60;;;;;;;;;;5057281;28;20231;-84
2022/01/25 06:29:34;;;;;;;23.08;16.58;;;;;;;;;;5055855;28;20219;-84
2022/01/25 06:32:01;;;;;;;30.88;18.25;;;;;;;;;;5052980;28;20838;-84
2022/01/25 06:34:28;;;;;;;29.83;18.23;;;;;;;;;;5036197;28;20243;-85
2022/01/25 06:36:56;;;;;;;22.75;17.13;;;;;;;;;;5047035;28;20281;-84
2022/01/25 06:39:24;;;;;;;24.02;16.75;;;;;;;;;;5052652;28;20211;-84
2022/01/25 06:41:51;;;;;;;30.20;21.75;;;;;;;;;;5061713;28;20286;-85
2022/01/25 06:44:19;;;;;;;33.70;22.08;;;;;;;;;;5058102;28;20255;-85
2022/01/25 06:46:47;;;;;;;36.20;19.25;;;;;;;;;;5060165;28;20239;-84
2022/01/25 06:49:14;;;;;;;25.80;18.30;;;;;;;;;;5056345;28;20211;-84
2022/01/25 06:51:41;;;;;;;27.60;19.05;;;;;;;;;;5061914;28;20210;-84
2022/01/25 06:54:09;;;;;;;23.02;18.30;;;;;;;;;;5053909;28;20200;-84
2022/01/25 06:56:38;;;;;;;25.77;16.80;;;;;;;;;;5054945;28;20213;-84
2022/01/25 06:59:05;;;;;;;28.70;15.70;;;;;;;;;;5056505;28;20204;-85
2022/01/25 07:01:32;;;;;;;21.10;17.30;;;;;;;;;;5055923;28;20586;-84
2022/01/25 07:04:00;;;;;;;26.27;16.30;;;;;;;;;;5060415;28;20565;-84
2022/01/25 07:06:27;;;;;;;22.95;15.52;;;;;;;;;;5051534;28;20230;-84
2022/01/25 07:08:54;;;;;;;23.20;17.35;;;;;;;;;;5058146;28;20351;-84
2022/01/25 07:11:22;;;;;;;25.55;14.48;;;;;;;;;;5061303;28;20204;-83
2022/01/25 07:13:50;;;;;;;26.30;16.50;;;;;;;;;;5056839;28;20216;-84
2022/01/25 07:16:18;;;;;;;20.90;13.88;;;;;;;;;;5057596;28;20199;-84
2022/01/25 07:18:45;;;;;;;24.15;13.90;;;;;;;;;;5053784;28;20207;-84
2022/01/25 07:21:12;;;;;;;25.08;15.07;;;;;;;;;;5064341;28;20208;-84
2022/01/25 07:23:39;;;;;;;24.52;14.05;;;;;;;;;;5055610;28;20242;-84
2022/01/25 07:26:06;;;;;;;20.67;12.82;;;;;;;;;;5048390;28;20615;-84
2022/01/25 07:28:36;;;;;;;19.20;13.55;;;;;;;;;;5049250;28;20238;-85
2022/01/25 07:31:04;;;;;;;24.48;15.00;;;;;;;;;;5049429;28;20191;-84
2022/01/25 07:33:32;;;;;;;21.08;14.88;;;;;;;;;;5048351;28;20736;-84
2022/01/25 07:35:59;;;;;;;22.60;14.90;;;;;;;;;;5048466;28;20255;-85
2022/01/25 07:38:27;;;;;;;21.48;14.32;;;;;;;;;;5047303;28;20723;-84
2022/01/25 07:40:56;;;;;;;29.60;18.05;;;;;;;;;;5045764;28;20204;-84
2022/01/25 07:43:24;;;;;;;20.15;15.93;;;;;;;;;;5046373;28;20200;-84
2022/01/25 07:45:54;;;;;;;25.30;17.00;;;;;;;;;;5045043;28;20610;-84
2022/01/25 07:48:24;;;;;;;24.33;14.75;;;;;;;;;;5045675;28;20236;-84
2022/01/25 07:50:52;;;;;;;22.42;15.48;;;;;;;;;;5045487;28;20291;-84
2022/01/25 07:53:20;;;;;;;27.13;16.95;;;;;;;;;;5046869;28;21066;-84
2022/01/25 07:55:48;;;;;;;25.00;15.82;;;;;;;;;;5045155;28;20278;-84
2022/01/25 07:58:15;;;;;;;22.05;15.27;;;;;;;;;;5048114;28;20215;-84
2022/01/25 08:00:45;;;;;;;20.63;15.43;;;;;;;;;;5045936;28;20200;-84
2022/01/25 08:03:13;;;;;;;25.73;16.17;;;;;;;;;;5044563;28;20242;-83
2022/01/25 08:05:44;;;;;;;23.80;16.83;;;;;;;;;;5046541;28;20202;-85
2022/01/25 08:08:12;;;;;;;20.80;14.05;;;;;;;;;;5048337;28;20220;-86
2022/01/25 08:10:39;;;;;;;23.63;17.50;;;;;;;;;;5047098;28;20196;-86
2022/01/25 08:13:07;;;;;;;26.50;16.50;;;;;;;;;;5043916;28;20287;-86
2022/01/25 08:15:34;;;;;;;21.92;17.00;;;;;;;;;;5046424;28;20591;-86
2022/01/25 08:18:02;;;;;;;24.77;15.00;;;;;;;;;;5048031;28;20195;-86
2022/01/25 08:20:29;;;;;;;20.50;14.60;;;;;;;;;;5046893;28;20208;-86
2022/01/25 08:22:58;;;;;;;24.33;16.83;;;;;;;;;;5047953;28;20665;-86
2022/01/25 08:25:25;;;;;;;25.73;15.98;;;;;;;;;;5047041;28;20269;-86
2022/01/25 08:27:52;;;;;;;22.48;16.45;;;;;;;;;;5046614;28;20723;-86
2022/01/25 08:30:21;;;;;;;26.08;16.40;;;;;;;;;;5047539;28;20286;-85
2022/01/25 08:32:48;;;;;;;21.08;16.50;;;;;;;;;;5047329;28;20610;-85
2022/01/25 08:35:15;;;;;;;23.33;17.10;;;;;;;;;;5047537;28;20648;-85
2022/01/25 08:37:42;;;;;;;24.40;13.98;;;;;;;;;;5047457;28;20735;-85
2022/01/25 08:40:12;;;;;;;29.17;17.45;;;;;;;;;;5045443;28;20721;-84
2022/01/25 08:42:39;;;;;;;21.23;14.07;;;;;;;;;;5047108;28;20196;-84
2022/01/25 08:45:08;;;;;;;26.02;16.38;;;;;;;;;;5046552;28;20577;-85
2022/01/25 08:47:36;;;;;;;23.60;16.15;;;;;;;;;;5048764;28;20196;-84
2022/01/25 08:50:03;;;;;;;27.05;16.60;;;;;;;;;;5051635;28;20557;-84
2022/01/25 08:52:30;;;;;;;28.10;15.50;;;;;;;;;;5051425;28;20207;-84
2022/01/25 08:54:57;;;;;;;24.42;15.50;;;;;;;;;;5049583;28;20598;-84
2022/01/25 08:57:27;;;;;;;26.83;16.42;;;;;;;;;;5051442;28;20609;-84
2022/01/25 08:59:56;;;;;;;26.10;16.23;;;;;;;;;;5051271;28;20254;-84
2022/01/25 09:02:23;;;;;;;27.50;16.50;;;;;;;;;;5051697;28;20261;-85
2022/01/25 09:04:50;;;;;;;24.13;16.67;;;;;;;;;;5050865;28;20265;-84
2022/01/25 09:07:20;;;;;;;27.75;16.63;;;;;;;;;;5049988;28;20692;-85
2022/01/25 09:09:48;;;;;;;22.08;15.60;;;;;;;;;;5051571;28;20270;-85
2022/01/25 09:12:15;;;;;;;22.88;14.48;;;;;;;;;;5051051;28;20212;-85
2022/01/25 09:14:44;;;;;;;21.42;16.13;;;;;;;;;;5043249;28;20304;-85
2022/01/25 09:17:11;;;;;;;21.25;16.50;;;;;;;;;;5051735;28;20279;-85
2022/01/25 09:19:41;;;;;;;25.23;16.77;;;;;;;;;;5050049;28;20188;-86
2022/01/25 09:22:11;;;;;;;23.95;17.25;;;;;;;;;;5050341;28;20254;-85
2022/01/25 09:24:38;;;;;;;23.55;15.80;;;;;;;;;;5050241;28;20200;-85
2022/01/25 09:27:08;;;;;;;23.13;14.57;;;;;;;;;;5050161;28;20703;-85
2022/01/25 09:29:35;;;;;;;21.42;16.10;;;;;;;;;;5050450;28;20219;-85
2022/01/25 09:32:04;;;;;;;26.17;16.85;;;;;;;;;;5049737;28;20250;-85
2022/01/25 09:34:31;;;;;;;27.50;15.95;;;;;;;;;;5049802;28;20204;-85
2022/01/25 09:36:59;;;;;;;24.40;17.08;;;;;;;;;;5050513;28;20253;-85
2022/01/25 09:39:26;;;;;;;22.65;15.32;;;;;;;;;;5050463;28;20281;-84
2022/01/25 09:41:54;;;;;;;27.10;15.02;;;;;;;;;;5049976;28;20720;-85
2022/01/25 09:44:23;;;;;;;18.45;14.40;;;;;;;;;;5048341;28;20200;-84
2022/01/25 09:46:53;;;;;;;23.00;15.95;;;;;;;;;;5031264;28;20217;-85
2022/01/25 09:49:21;;;;;;;27.55;16.52;;;;;;;;;;5030168;28;20228;-85
2022/01/25 09:51:50;;;;;;;24.15;14.82;;;1.70;99.90;;;;;;5011015;28;20201;-85
2022/01/25 09:54:17;;;;;;;26.08;16.42;;;;;;;;;;5011710;28;20625;-84
2022/01/25 09:56:44;;;;;;;29.02;17.65;;;;;;;;;;5030104;28;20641;-85
2022/01/25 09:59:11;;;;;;;23.83;16.67;;;;;;;;;;5029507;28;20655;-84
2022/01/25 10:01:39;;;;;;;25.92;16.30;;;;;;;;;;5029552;28;20196;-84
2022/01/25 10:04:30;;;;;;;29.40;15.57;;;;;;;;;;5029362;28;20262;-84
2022/01/25 10:06:58;;;;;;;22.38;14.75;;;;;;;;;;5030184;28;20555;-84
2022/01/25 10:09:26;;;;;;;23.20;15.80;;;;;;;;;;5025302;28;20436;-85
2022/01/25 10:11:53;;;;;;;22.55;16.25;;;;;;;;;;5028960;28;20203;-85
2022/01/25 10:14:23;;;;;;;24.83;15.90;;;;;;;;;;5029139;28;20270;-85
2022/01/25 10:16:54;;;;;;;26.00;17.08;;;2.30;99.90;;;;;;5030002;28;20219;-85
2022/01/25 10:19:25;;;;;;;22.27;16.98;;;2.40;99.90;;;;;;5030225;28;20673;-85
2022/01/25 10:21:52;;;;;;;24.88;17.17;;;;;;;;;;5027907;28;20559;-85
2022/01/25 10:24:22;;;;;;;25.55;16.55;;;;;;;;;;5028518;28;20209;-85
2022/01/25 10:26:56;;;;;;;35.97;19.30;;;2.40;99.90;;;;;;5030161;28;20689;-84
2022/01/25 10:29:34;;;;;;;23.17;16.55;;;2.40;99.90;;;;;;5031004;28;20232;-84
2022/01/25 10:32:05;;;;;;;29.40;16.92;;;2.50;99.90;;;;;;5012026;28;20209;-85
2022/01/25 10:34:37;;;;;;;23.40;16.80;;;;;;;;;;5025270;28;20205;-85
2022/01/25 10:37:08;;;;;;;28.45;17.45;;;;;;;;;;5030795;28;20208;-85
2022/01/25 10:39:38;;;;;;;24.95;17.13;;;;;;;;;;5031108;28;20608;-84
2022/01/25 10:42:07;;;;;;;24.50;16.80;;;2.60;99.90;;;;;;5030061;28;20204;-85
2022/01/25 10:44:47;;;;;;;23.92;16.02;;;;;;;;;;5028873;28;20196;-85
2022/01/25 10:47:14;;;;;;;28.08;17.08;;;;;;;;;;5027993;28;20725;-85
2022/01/25 10:49:44;;;;;;;26.13;14.80;;;;;;;;;;5029333;28;20212;-84
2022/01/25 10:52:11;;;;;;;23.35;15.35;;;;;;;;;;5029735;28;20204;-85
2022/01/25 10:54:41;;;;;;;23.00;14.93;;;;;;;;;;5028768;28;20251;-84
2022/01/25 10:57:18;;;;;;;23.42;15.18;;;;;;;;;;5029153;28;20254;-84
2022/01/25 10:59:56;;;;;;;20.90;13.90;;;;;;;;;;5027598;28;20251;-84
2022/01/25 11:02:24;;;;;;;21.95;13.35;;;;;;;;;;5029503;28;20201;-84
2022/01/25 11:04:52;;;;;;;24.88;15.93;;;;;;;;;;5028318;28;20228;-84
2022/01/25 11:07:19;;;;;;;23.75;15.43;;;;;;;;;;5028841;28;20366;-84
2022/01/25 11:09:48;;;;;;;28.05;17.63;;;;;;;;;;5027907;28;20221;-84
2022/01/25 11:12:19;;;;;;;24.38;17.90;;;;;;;;;;5023676;28;20216;-84
2022/01/25 11:14:54;;;;;;;31.30;20.20;;;;;;;;;;5027924;28;20208;-83
2022/01/25 11:17:21;;;;;;;21.77;17.55;;;;;;;;;;5028163;28;20345;-84
2022/01/25 11:19:48;;;;;;;22.90;18.05;;;;;;;;;;5028560;28;20195;-84
2022/01/25 11:22:19;;;;;;;29.15;19.35;;;;;;;;;;5028633;28;20236;-84
2022/01/25 11:24:50;;;;;;;29.45;19.08;;;;;;;;;;5025838;28;20216;-84
2022/01/25 11:27:17;;;;;;;24.20;18.10;;;;;;;;;;5026544;28;20901;-84
2022/01/25 11:29:46;;;;;;;31.60;19.73;;;;;;;;;;5028190;28;20286;-85
2022/01/25 11:32:15;;;;;;;27.80;18.52;;;;;;;;;;5029047;28;20209;-85
2022/01/25 11:34:42;;;;;;;32.22;20.30;;;;;;;;;;5028251;28;20721;-84
2022/01/25 11:37:10;;;;;;;24.27;17.08;;;;;;;;;;5027691;28;20295;-84
2022/01/25 11:39:40;;;;;;;29.05;18.45;;;;;;;;;;5027240;28;20200;-84
2022/01/25 11:42:10;;;;;;;23.48;17.25;;;;;;;;;;5028462;28;20197;-85
2022/01/25 11:44:46;;;;;;;28.83;18.13;;;;;;;;;;5027955;28;20696;-84
2022/01/25 11:47:16;;;;;;;27.35;18.63;;;;;;;;;;5027530;28;20258;-84
2022/01/25 11:49:53;;;;;;;29.33;18.40;;;;;;;;;;5024314;28;20315;-84
2022/01/25 11:52:21;;;;;;;28.50;19.13;;;;;;;;;;5028272;28;20224;-84
2022/01/25 11:54:51;;;;;;;23.30;17.63;;;;;;;;;;5027720;28;20220;-84
2022/01/25 11:57:21;;;;;;;32.97;18.38;;;;;;;;;;5021249;28;20224;-84
2022/01/25 11:59:51;;;;;;;28.30;20.30;;;;;;;;;;5028174;28;20315;-84
2022/01/25 12:02:33;;;;;;;28.98;19.33;;;;;;;;;;5026845;28;20216;-84
2022/01/25 12:05:04;;;;;;;28.98;17.98;;;;;;;;;;5027698;28;20623;-84
2022/01/25 12:07:38;;;;;;;26.23;18.90;;;;;;;;;;5028081;28;20204;-84
2022/01/25 12:10:26;;;;;;;26.00;19.95;;;;;;;;;;5028051;28;20254;-83
2022/01/25 12:13:08;;;;;;;23.30;18.13;;;;;;;;;;5019951;28;20201;-84
2022/01/25 12:15:36;;;;;;;27.05;20.15;;;;;;;;;;5024627;28;20662;-84
2022/01/25 12:18:04;;;;;;;28.00;20.20;;;;;;;;;;5027952;28;20627;-84
2022/01/25 12:20:31;;;;;;;34.75;22.58;;;;;;;;;;5026672;28;20204;-84
2022/01/25 12:23:09;;;;;;;26.90;18.35;;;;;;;;;;5020809;28;20704;-84
2022/01/25 12:25:49;;;;;;;25.52;20.17;;;3.80;99.90;;;;;;5027135;28;20208;-84
2022/01/25 12:28:23;;;;;;;28.45;20.90;;;;;;;;;;5026335;28;20197;-84
2022/01/25 12:30:52;;;;;;;27.67;19.05;;;;;;;;;;5027598;28;20228;-84
2022/01/25 12:33:23;;;;;;;31.08;21.77;;;;;;;;;;5028189;28;20201;-84
2022/01/25 12:35:50;;;;;;;39.15;21.05;;;;;;;;;;5026964;28;20200;-84
2022/01/25 12:38:19;;;;;;;31.40;21.83;;;;;;;;;;5026047;28;20283;-84
2022/01/25 12:41:03;;;;;;;34.38;22.55;;;;;;;;;;5026694;28;20246;-84
2022/01/25 12:43:33;;;;;;;33.97;21.90;;;;;;;;;;5026948;28;20209;-84
2022/01/25 12:46:03;;;;;;;32.40;20.80;;;;;;;;;;5026939;28;20579;-84
2022/01/25 12:48:34;;;;;;;39.95;22.92;;;;;;;;;;5026362;28;20200;-84
2022/01/25 12:51:05;;;;;;;40.35;21.95;;;;;;;;;;5027155;28;20294;-84
2022/01/25 12:53:34;;;;;;;35.22;22.00;;;;;;;;;;5028160;28;20665;-85
2022/01/25 12:56:06;;;;;;;31.00;21.90;;;;;;;;;;5019101;28;20227;-83
2022/01/25 12:58:34;;;;;;;34.53;21.10;;;;;;;;;;5027036;28;20291;-84
2022/01/25 13:01:04;;;;;;;33.70;21.67;;;;;;;;;;5027158;28;20196;-83
2022/01/25 13:03:32;;;;;;;34.80;22.42;;;;;;;;;;5027001;28;20205;-84
2022/01/25 13:06:01;;;;;;;34.88;23.67;;;;;;;;;;5026520;28;20192;-84
2022/01/25 13:08:30;;;;;;;34.80;22.33;;;;;;;;;;5027482;28;20197;-84
2022/01/25 13:11:12;;;;;;;39.30;24.80;;;;;;;;;;5021025;28;20225;-85
2022/01/25 13:13:56;;;;;;;32.75;21.15;;;;;;;;;;5013678;28;20266;-84
2022/01/25 13:16:37;;;;;;;30.55;22.73;;;;;;;;;;5026311;28;20227;-84
2022/01/25 13:19:04;;;;;;;35.03;20.55;;;;;;;;;;5027133;28;20242;-84
2022/01/25 13:21:37;;;;;;;34.17;20.83;;;;;;;;;;5026975;28;20196;-85
2022/01/25 13:24:08;;;;;;;30.30;22.08;;;;;;;;;;5014888;28;20197;-84
2022/01/25 13:26:39;;;;;;;31.45;20.17;;;;;;;;;;5027050;28;20284;-84
2022/01/25 13:31:54;;;;;;;29.30;19.63;;;;;;;;;;5025880;28;20708;-85
2022/01/25 13:34:23;;;;;;;32.38;21.15;;;;;;;;;;5028768;28;20193;-84
2022/01/25 13:36:50;;;;;;;32.42;21.08;;;;;;;;;;5031208;28;20204;-84
2022/01/25 13:39:20;;;;;;;33.85;22.25;;;;;;;;;;5030681;28;20224;-85
2022/01/25 13:41:53;;;;;;;35.30;21.67;;;;;;;;;;5021087;28;20204;-85
2022/01/25 13:47:11;;;;;;;31.15;21.60;;;;;;;;;;5030240;28;20200;-85
2022/01/25 13:49:40;;;;;;;28.90;19.13;;;;;;;;;;5031100;28;20224;-85
2022/01/25 13:52:07;;;;;;;30.02;19.17;;;;;;;;;;5048182;28;20199;-85
2022/01/25 13:54:34;;;;;;;29.70;20.10;;;;;;;;;;5036847;28;20224;-85
2022/01/25 13:57:09;;;;;;;34.42;20.63;;;;;;;;;;5043566;28;20275;-85
2022/01/25 13:59:37;;;;;;;31.83;21.10;;;;;;;;;;5031749;28;20670;-85
2022/01/25 14:02:04;;;;;;;31.92;20.65;;;;;;;;;;5033288;28;20209;-84
2022/01/25 14:04:38;;;;;;;29.58;20.85;;;;;;;;;;5031738;28;20231;-84
2022/01/25 14:07:05;;;;;;;36.17;20.30;;;;;;;;;;5037184;28;20212;-85
2022/01/25 14:09:35;;;;;;;28.23;20.20;;;;;;;;;;5029793;28;20228;-84
2022/01/25 14:23:22;;;;;;;36.53;20.73;;;;;;;;;;5029604;28;20215;-84
2022/01/25 14:25:50;;;;;;;34.17;20.98;;;;;;;;;;5029597;28;20719;-84
2022/01/25 14:28:20;;;;;;;36.35;22.83;;;;;;;;;;5029638;28;20197;-85
2022/01/25 14:30:49;;;;;;;31.17;21.35;;;;;;;;;;5029999;28;20608;-84
2022/01/25 14:33:17;;;;;;;29.30;20.83;;;;;;;;;;5026352;28;20216;-84
2022/01/25 14:35:47;;;;;;;34.50;21.67;;;;;;;;;;5029846;28;20295;-84
2022/01/25 14:38:21;;;;;;;32.15;21.23;;;;;;;;;;5037388;28;20200;-84
2022/01/25 14:41:02;;;;;;;33.30;22.58;;;;;;;;;;5037799;28;20193;-84
2022/01/25 14:43:31;;;;;;;32.40;21.00;;;;;;;;;;5029283;28;20211;-84
2022/01/25 14:46:03;;;;;;;34.78;21.77;;;;;;;;;;5028791;28;20295;-84
2022/01/25 14:48:35;;;;;;;41.22;24.27;;;;;;;;;;5029819;28;20564;-84
2022/01/25 14:51:04;;;;;;;35.85;21.67;;;;;;;;;;5029394;28;20275;-84
2022/01/25 14:53:31;;;;;;;29.25;20.83;;;;;;;;;;5049277;28;20200;-84
2022/01/25 14:56:00;;;;;;;30.38;20.90;;;;;;;;;;5030737;28;20333;-84
2022/01/25 15:01:13;;;;;;;33.00;21.75;;;;;;;;;;5029479;28;20269;-84
2022/01/25 15:03:41;;;;;;;42.00;21.40;;;;;;;;;;5028440;28;20212;-84
2022/01/25 15:06:09;;;;;;;30.67;20.17;;;;;;;;;;5031530;28;20197;-84
2022/01/25 15:08:37;;;;;;;35.60;22.25;;;;;;;;;;5029170;28;20224;-85
2022/01/25 15:11:05;;;;;;;37.72;24.25;;;;;;;;;;5028680;28;20267;-84
2022/01/25 15:13:34;;;;;;;36.53;22.80;;;;;;;;;;5029509;28;20232;-84
2022/01/25 15:16:01;;;;;;;38.00;21.55;;;;;;;;;;5027680;28;20278;-84
2022/01/25 15:18:31;;;;;;;32.65;20.80;;;;;;;;;;5029457;28;20235;-84
2022/01/25 15:20:59;;;;;;;33.30;21.73;;;;;;;;;;5028416;28;20200;-84
2022/01/25 15:23:29;;;;;;;39.88;23.80;;;;;;;;;;5028867;28;20238;-84
2022/01/25 15:25:59;;;;;;;31.65;18.90;;;;;;;;;;5013835;28;20205;-84
2022/01/25 15:28:36;;;;;;;41.30;22.50;;;;;;;;;;5018416;28;20648;-85
2022/01/25 15:31:03;;;;;;;38.60;22.13;;;;;;;;;;5028830;28;20227;-85
2022/01/25 15:33:32;;;;;;;34.92;20.20;;;;;;;;;;5028089;28;20331;-84
2022/01/25 15:35:59;;;;;;;33.55;21.75;;;;;;;;;;5027903;28;20193;-85
2022/01/25 15:38:28;;;;;;;32.70;20.52;;;;;;;;;;5028824;28;20200;-84
2022/01/25 15:40:55;;;;;;;34.67;21.30;;;;;;;;;;5027296;28;20208;-85
2022/01/25 15:43:24;;;;;;;32.78;20.98;;;;;;;;;;5028469;28;20208;-85
2022/01/25 15:46:01;;;;;;;39.08;21.38;;;;;;;;;;5026416;28;20228;-85
2022/01/25 15:48:28;;;;;;;32.55;20.55;;;;;;;;;;5025138;28;20231;-84
2022/01/25 15:50:56;;;;;;;38.60;20.58;;;;;;;;;;5015152;28;20319;-85
2022/01/25 15:53:23;;;;;;;33.30;19.33;;;;;;;;;;5008168;28;20292;-84
2022/01/25 15:55:51;;;;;;;30.63;21.73;;;;;;;;;;5025100;28;20266;-85
2022/01/25 15:58:19;;;;;;;30.63;19.25;;;;;;;;;;5026889;28;20859;-84